sensor_id;sensor_type;location;lat;lon;timestamp;P1;durP1;ratioP1;P2;durP2;ratioP2
59788;SDS011;47353;51.614;5.530;2023-12-29T00:01:11;8.40;;;1.77;;
59788;SDS011;47353;51.614;5.530;2023-12-29T00:03:36;4.22;;;1.58;;
59788;SDS011;47353;51.614;5.530;2023-12-29T00:06:02;6.07;;;1.92;;
59788;SDS011;47353;51.614;5.530;2023-12-29T00:08:28;8.80;;;1.90;;
59788;SDS011;47353;51.614;5.530;2023-12-29T00:10:53;7.88;;;1.92;;
59788;SDS011;47353;51.614;5.530;2023-12-29T00:13:19;7.95;;;1.60;;
59788;SDS011;47353;51.614;5.530;2023-12-29T00:15:48;10.70;;;1.73;;
59788;SDS011;47353;51.614;5.530;2023-12-29T00:18:16;7.75;;;1.80;;
59788;SDS011;47353;51.614;5.530;2023-12-29T00:20:41;6.97;;;1.75;;
59788;SDS011;47353;51.614;5.530;2023-12-29T00:23:07;9.57;;;2.25;;
59788;SDS011;47353;51.614;5.530;2023-12-29T00:25:34;10.15;;;2.30;;
59788;SDS011;47353;51.614;5.530;2023-12-29T00:28:01;9.07;;;2.08;;
59788;SDS011;47353;51.614;5.530;2023-12-29T00:30:27;8.52;;;1.80;;
59788;SDS011;47353;51.614;5.530;2023-12-29T00:32:54;7.53;;;2.20;;
59788;SDS011;47353;51.614;5.530;2023-12-29T00:35:20;10.75;;;2.15;;
59788;SDS011;47353;51.614;5.530;2023-12-29T00:37:45;9.80;;;2.00;;
59788;SDS011;47353;51.614;5.530;2023-12-29T00:40:11;10.40;;;2.22;;
59788;SDS011;47353;51.614;5.530;2023-12-29T00:42:37;6.85;;;1.60;;
59788;SDS011;47353;51.614;5.530;2023-12-29T00:45:02;9.25;;;2.13;;
59788;SDS011;47353;51.614;5.530;2023-12-29T00:47:28;7.47;;;1.95;;
59788;SDS011;47353;51.614;5.530;2023-12-29T00:49:53;7.53;;;1.92;;
59788;SDS011;47353;51.614;5.530;2023-12-29T00:52:19;8.32;;;1.98;;
59788;SDS011;47353;51.614;5.530;2023-12-29T00:54:44;12.90;;;3.20;;
59788;SDS011;47353;51.614;5.530;2023-12-29T00:57:09;10.75;;;1.98;;
59788;SDS011;47353;51.614;5.530;2023-12-29T00:59:36;7.38;;;1.95;;
59788;SDS011;47353;51.614;5.530;2023-12-29T01:02:05;12.77;;;2.53;;
59788;SDS011;47353;51.614;5.530;2023-12-29T01:04:31;13.32;;;2.40;;
59788;SDS011;47353;51.614;5.530;2023-12-29T01:06:56;6.28;;;1.88;;
59788;SDS011;47353;51.614;5.530;2023-12-29T01:09:22;8.63;;;1.88;;
59788;SDS011;47353;51.614;5.530;2023-12-29T01:11:47;10.18;;;2.10;;
59788;SDS011;47353;51.614;5.530;2023-12-29T01:14:13;10.32;;;1.90;;
59788;SDS011;47353;51.614;5.530;2023-12-29T01:16:39;7.55;;;1.77;;
59788;SDS011;47353;51.614;5.530;2023-12-29T01:19:05;7.45;;;1.90;;
59788;SDS011;47353;51.614;5.530;2023-12-29T01:21:30;8.85;;;1.95;;
59788;SDS011;47353;51.614;5.530;2023-12-29T01:23:59;8.93;;;2.03;;
59788;SDS011;47353;51.614;5.530;2023-12-29T01:26:26;8.90;;;2.45;;
59788;SDS011;47353;51.614;5.530;2023-12-29T01:28:51;10.60;;;2.33;;
59788;SDS011;47353;51.614;5.530;2023-12-29T01:31:17;12.63;;;2.20;;
59788;SDS011;47353;51.614;5.530;2023-12-29T01:33:42;12.48;;;2.35;;
59788;SDS011;47353;51.614;5.530;2023-12-29T01:36:08;7.90;;;1.98;;
59788;SDS011;47353;51.614;5.530;2023-12-29T01:38:33;8.88;;;2.00;;
59788;SDS011;47353;51.614;5.530;2023-12-29T01:40:59;11.43;;;2.55;;
59788;SDS011;47353;51.614;5.530;2023-12-29T01:43:24;9.98;;;2.00;;
59788;SDS011;47353;51.614;5.530;2023-12-29T01:45:49;8.02;;;2.08;;
59788;SDS011;47353;51.614;5.530;2023-12-29T01:48:15;6.57;;;2.10;;
59788;SDS011;47353;51.614;5.530;2023-12-29T01:50:40;11.32;;;2.75;;
59788;SDS011;47353;51.614;5.530;2023-12-29T01:53:06;8.27;;;2.05;;
59788;SDS011;47353;51.614;5.530;2023-12-29T01:55:32;8.10;;;2.10;;
59788;SDS011;47353;51.614;5.530;2023-12-29T01:57:58;10.32;;;2.10;;
59788;SDS011;47353;51.614;5.530;2023-12-29T02:00:24;8.88;;;2.17;;
59788;SDS011;47353;51.614;5.530;2023-12-29T02:02:50;10.18;;;1.90;;
59788;SDS011;47353;51.614;5.530;2023-12-29T02:05:16;9.88;;;2.30;;
59788;SDS011;47353;51.614;5.530;2023-12-29T02:07:42;9.48;;;2.00;;
59788;SDS011;47353;51.614;5.530;2023-12-29T02:10:08;8.38;;;1.90;;
59788;SDS011;47353;51.614;5.530;2023-12-29T02:12:40;10.73;;;2.38;;
59788;SDS011;47353;51.614;5.530;2023-12-29T02:15:06;9.65;;;2.15;;
59788;SDS011;47353;51.614;5.530;2023-12-29T02:17:44;11.48;;;2.10;;
59788;SDS011;47353;51.614;5.530;2023-12-29T02:20:14;9.13;;;2.08;;
59788;SDS011;47353;51.614;5.530;2023-12-29T02:22:39;8.38;;;2.10;;
59788;SDS011;47353;51.614;5.530;2023-12-29T02:25:08;8.68;;;1.98;;
59788;SDS011;47353;51.614;5.530;2023-12-29T02:27:38;9.65;;;1.90;;
59788;SDS011;47353;51.614;5.530;2023-12-29T02:32:54;11.90;;;2.15;;
59788;SDS011;47353;51.614;5.530;2023-12-29T02:35:25;10.95;;;1.90;;
59788;SDS011;47353;51.614;5.530;2023-12-29T02:37:53;11.77;;;2.63;;
59788;SDS011;47353;51.614;5.530;2023-12-29T02:40:19;10.25;;;2.20;;
59788;SDS011;47353;51.614;5.530;2023-12-29T02:42:46;11.80;;;2.20;;
59788;SDS011;47353;51.614;5.530;2023-12-29T02:45:12;9.10;;;1.80;;
59788;SDS011;47353;51.614;5.530;2023-12-29T02:47:38;10.35;;;2.00;;
59788;SDS011;47353;51.614;5.530;2023-12-29T02:50:03;6.07;;;1.58;;
59788;SDS011;47353;51.614;5.530;2023-12-29T02:52:29;9.23;;;1.75;;
59788;SDS011;47353;51.614;5.530;2023-12-29T02:54:54;9.57;;;2.10;;
59788;SDS011;47353;51.614;5.530;2023-12-29T02:57:20;11.30;;;2.00;;
59788;SDS011;47353;51.614;5.530;2023-12-29T02:59:45;9.52;;;1.85;;
59788;SDS011;47353;51.614;5.530;2023-12-29T03:02:10;7.20;;;1.95;;
59788;SDS011;47353;51.614;5.530;2023-12-29T03:04:36;8.40;;;1.90;;
59788;SDS011;47353;51.614;5.530;2023-12-29T03:07:01;6.25;;;1.52;;
59788;SDS011;47353;51.614;5.530;2023-12-29T03:09:27;7.50;;;2.00;;
59788;SDS011;47353;51.614;5.530;2023-12-29T03:11:52;10.07;;;2.10;;
59788;SDS011;47353;51.614;5.530;2023-12-29T03:14:17;7.05;;;1.40;;
59788;SDS011;47353;51.614;5.530;2023-12-29T03:16:43;7.20;;;1.85;;
59788;SDS011;47353;51.614;5.530;2023-12-29T03:19:08;7.60;;;2.00;;
59788;SDS011;47353;51.614;5.530;2023-12-29T03:21:33;8.75;;;1.77;;
59788;SDS011;47353;51.614;5.530;2023-12-29T03:23:59;11.63;;;2.20;;
59788;SDS011;47353;51.614;5.530;2023-12-29T03:26:24;9.73;;;1.73;;
59788;SDS011;47353;51.614;5.530;2023-12-29T03:28:50;8.48;;;1.75;;
59788;SDS011;47353;51.614;5.530;2023-12-29T03:31:15;6.88;;;2.08;;
59788;SDS011;47353;51.614;5.530;2023-12-29T03:33:40;9.95;;;2.30;;
59788;SDS011;47353;51.614;5.530;2023-12-29T03:36:06;12.02;;;2.22;;
59788;SDS011;47353;51.614;5.530;2023-12-29T03:38:34;8.18;;;1.83;;
59788;SDS011;47353;51.614;5.530;2023-12-29T03:40:59;9.15;;;1.92;;
59788;SDS011;47353;51.614;5.530;2023-12-29T03:43:25;7.53;;;2.00;;
59788;SDS011;47353;51.614;5.530;2023-12-29T03:45:50;11.98;;;2.47;;
59788;SDS011;47353;51.614;5.530;2023-12-29T03:48:15;10.23;;;2.17;;
59788;SDS011;47353;51.614;5.530;2023-12-29T03:50:41;11.10;;;2.20;;
59788;SDS011;47353;51.614;5.530;2023-12-29T03:53:06;10.38;;;2.10;;
59788;SDS011;47353;51.614;5.530;2023-12-29T03:55:31;9.75;;;2.13;;
59788;SDS011;47353;51.614;5.530;2023-12-29T03:57:57;12.70;;;2.47;;
59788;SDS011;47353;51.614;5.530;2023-12-29T04:00:22;7.72;;;2.20;;
59788;SDS011;47353;51.614;5.530;2023-12-29T04:02:48;7.45;;;2.00;;
59788;SDS011;47353;51.614;5.530;2023-12-29T04:05:13;6.50;;;1.83;;
59788;SDS011;47353;51.614;5.530;2023-12-29T04:07:39;9.15;;;2.00;;
59788;SDS011;47353;51.614;5.530;2023-12-29T04:10:05;7.90;;;2.20;;
59788;SDS011;47353;51.614;5.530;2023-12-29T04:12:31;9.65;;;2.15;;
59788;SDS011;47353;51.614;5.530;2023-12-29T04:14:57;4.93;;;1.60;;
59788;SDS011;47353;51.614;5.530;2023-12-29T04:17:22;10.77;;;2.40;;
59788;SDS011;47353;51.614;5.530;2023-12-29T04:19:47;9.55;;;2.33;;
59788;SDS011;47353;51.614;5.530;2023-12-29T04:22:13;9.70;;;2.00;;
59788;SDS011;47353;51.614;5.530;2023-12-29T04:24:38;8.45;;;1.90;;
59788;SDS011;47353;51.614;5.530;2023-12-29T04:27:04;10.60;;;2.30;;
59788;SDS011;47353;51.614;5.530;2023-12-29T04:29:29;8.32;;;2.28;;
59788;SDS011;47353;51.614;5.530;2023-12-29T04:31:55;10.02;;;2.28;;
59788;SDS011;47353;51.614;5.530;2023-12-29T04:34:20;11.25;;;2.25;;
59788;SDS011;47353;51.614;5.530;2023-12-29T04:36:46;7.15;;;1.95;;
59788;SDS011;47353;51.614;5.530;2023-12-29T04:39:11;11.75;;;2.40;;
59788;SDS011;47353;51.614;5.530;2023-12-29T04:41:36;10.32;;;2.30;;
59788;SDS011;47353;51.614;5.530;2023-12-29T04:44:02;11.05;;;1.98;;
59788;SDS011;47353;51.614;5.530;2023-12-29T04:46:27;7.90;;;1.85;;
59788;SDS011;47353;51.614;5.530;2023-12-29T04:48:53;10.70;;;2.33;;
59788;SDS011;47353;51.614;5.530;2023-12-29T04:51:18;9.00;;;1.70;;
59788;SDS011;47353;51.614;5.530;2023-12-29T04:53:44;10.07;;;2.10;;
59788;SDS011;47353;51.614;5.530;2023-12-29T04:56:09;7.82;;;1.80;;
59788;SDS011;47353;51.614;5.530;2023-12-29T04:58:35;10.63;;;2.05;;
59788;SDS011;47353;51.614;5.530;2023-12-29T05:01:00;10.98;;;2.15;;
59788;SDS011;47353;51.614;5.530;2023-12-29T05:03:26;11.55;;;2.38;;
59788;SDS011;47353;51.614;5.530;2023-12-29T05:05:51;10.45;;;2.20;;
59788;SDS011;47353;51.614;5.530;2023-12-29T05:08:16;9.00;;;2.10;;
59788;SDS011;47353;51.614;5.530;2023-12-29T05:10:42;10.20;;;2.22;;
59788;SDS011;47353;51.614;5.530;2023-12-29T05:13:07;8.45;;;2.08;;
59788;SDS011;47353;51.614;5.530;2023-12-29T05:15:33;11.27;;;1.83;;
59788;SDS011;47353;51.614;5.530;2023-12-29T05:17:58;9.02;;;2.55;;
59788;SDS011;47353;51.614;5.530;2023-12-29T05:20:24;8.90;;;2.30;;
59788;SDS011;47353;51.614;5.530;2023-12-29T05:22:49;10.38;;;2.20;;
59788;SDS011;47353;51.614;5.530;2023-12-29T05:25:15;7.70;;;1.92;;
59788;SDS011;47353;51.614;5.530;2023-12-29T05:27:40;11.77;;;2.80;;
59788;SDS011;47353;51.614;5.530;2023-12-29T05:30:06;10.35;;;2.45;;
59788;SDS011;47353;51.614;5.530;2023-12-29T05:32:31;11.27;;;2.47;;
59788;SDS011;47353;51.614;5.530;2023-12-29T05:34:56;11.82;;;2.33;;
59788;SDS011;47353;51.614;5.530;2023-12-29T05:37:22;8.30;;;2.00;;
59788;SDS011;47353;51.614;5.530;2023-12-29T05:39:48;11.07;;;2.33;;
59788;SDS011;47353;51.614;5.530;2023-12-29T05:42:13;11.63;;;2.58;;
59788;SDS011;47353;51.614;5.530;2023-12-29T05:44:38;11.68;;;2.47;;
59788;SDS011;47353;51.614;5.530;2023-12-29T05:47:04;11.80;;;2.13;;
59788;SDS011;47353;51.614;5.530;2023-12-29T05:49:30;12.05;;;2.17;;
59788;SDS011;47353;51.614;5.530;2023-12-29T05:51:57;11.98;;;2.30;;
59788;SDS011;47353;51.614;5.530;2023-12-29T05:54:22;9.35;;;2.10;;
59788;SDS011;47353;51.614;5.530;2023-12-29T05:56:48;9.10;;;2.05;;
59788;SDS011;47353;51.614;5.530;2023-12-29T05:59:13;11.65;;;2.63;;
59788;SDS011;47353;51.614;5.530;2023-12-29T06:01:39;11.15;;;2.20;;
59788;SDS011;47353;51.614;5.530;2023-12-29T06:04:04;11.73;;;2.63;;
59788;SDS011;47353;51.614;5.530;2023-12-29T06:06:29;11.63;;;2.50;;
59788;SDS011;47353;51.614;5.530;2023-12-29T06:08:55;6.53;;;1.80;;
59788;SDS011;47353;51.614;5.530;2023-12-29T06:11:20;10.25;;;2.58;;
59788;SDS011;47353;51.614;5.530;2023-12-29T06:13:46;8.65;;;2.00;;
59788;SDS011;47353;51.614;5.530;2023-12-29T06:16:17;12.13;;;2.33;;
59788;SDS011;47353;51.614;5.530;2023-12-29T06:18:43;9.57;;;2.10;;
59788;SDS011;47353;51.614;5.530;2023-12-29T06:21:08;11.18;;;1.83;;
59788;SDS011;47353;51.614;5.530;2023-12-29T06:23:34;6.13;;;1.67;;
59788;SDS011;47353;51.614;5.530;2023-12-29T06:25:59;10.82;;;2.30;;
59788;SDS011;47353;51.614;5.530;2023-12-29T06:28:25;12.32;;;1.90;;
59788;SDS011;47353;51.614;5.530;2023-12-29T06:30:50;7.38;;;1.90;;
59788;SDS011;47353;51.614;5.530;2023-12-29T06:33:15;9.82;;;2.00;;
59788;SDS011;47353;51.614;5.530;2023-12-29T06:35:41;9.13;;;2.03;;
59788;SDS011;47353;51.614;5.530;2023-12-29T06:38:07;9.20;;;2.22;;
59788;SDS011;47353;51.614;5.530;2023-12-29T06:40:32;9.90;;;2.17;;
59788;SDS011;47353;51.614;5.530;2023-12-29T06:42:57;8.82;;;2.50;;
59788;SDS011;47353;51.614;5.530;2023-12-29T06:45:23;10.40;;;2.15;;
59788;SDS011;47353;51.614;5.530;2023-12-29T06:47:48;8.93;;;1.70;;
59788;SDS011;47353;51.614;5.530;2023-12-29T06:50:14;8.38;;;2.08;;
59788;SDS011;47353;51.614;5.530;2023-12-29T06:52:39;12.20;;;2.50;;
59788;SDS011;47353;51.614;5.530;2023-12-29T06:55:05;7.72;;;1.80;;
59788;SDS011;47353;51.614;5.530;2023-12-29T06:57:31;7.78;;;2.00;;
59788;SDS011;47353;51.614;5.530;2023-12-29T06:59:56;8.75;;;1.90;;
59788;SDS011;47353;51.614;5.530;2023-12-29T07:02:22;4.82;;;1.70;;
59788;SDS011;47353;51.614;5.530;2023-12-29T07:04:47;6.57;;;1.60;;
59788;SDS011;47353;51.614;5.530;2023-12-29T07:07:13;7.63;;;2.10;;
59788;SDS011;47353;51.614;5.530;2023-12-29T07:09:38;5.85;;;1.73;;
59788;SDS011;47353;51.614;5.530;2023-12-29T07:12:05;7.72;;;1.75;;
59788;SDS011;47353;51.614;5.530;2023-12-29T07:14:31;8.80;;;1.90;;
59788;SDS011;47353;51.614;5.530;2023-12-29T07:16:56;8.63;;;1.50;;
59788;SDS011;47353;51.614;5.530;2023-12-29T07:19:23;9.55;;;1.90;;
59788;SDS011;47353;51.614;5.530;2023-12-29T07:21:48;7.13;;;1.92;;
59788;SDS011;47353;51.614;5.530;2023-12-29T07:24:14;9.68;;;2.30;;
59788;SDS011;47353;51.614;5.530;2023-12-29T07:26:39;10.70;;;2.17;;
59788;SDS011;47353;51.614;5.530;2023-12-29T07:29:04;9.40;;;2.25;;
59788;SDS011;47353;51.614;5.530;2023-12-29T07:31:30;7.85;;;2.05;;
59788;SDS011;47353;51.614;5.530;2023-12-29T07:33:56;8.45;;;1.90;;
59788;SDS011;47353;51.614;5.530;2023-12-29T07:36:21;8.00;;;1.90;;
59788;SDS011;47353;51.614;5.530;2023-12-29T07:38:47;6.75;;;2.05;;
59788;SDS011;47353;51.614;5.530;2023-12-29T07:41:12;6.00;;;2.05;;
59788;SDS011;47353;51.614;5.530;2023-12-29T07:43:37;9.20;;;1.80;;
59788;SDS011;47353;51.614;5.530;2023-12-29T07:46:03;7.38;;;2.20;;
59788;SDS011;47353;51.614;5.530;2023-12-29T07:48:28;8.25;;;2.10;;
59788;SDS011;47353;51.614;5.530;2023-12-29T07:50:54;8.75;;;1.83;;
59788;SDS011;47353;51.614;5.530;2023-12-29T07:53:23;7.95;;;1.90;;
59788;SDS011;47353;51.614;5.530;2023-12-29T07:55:49;6.93;;;1.98;;
59788;SDS011;47353;51.614;5.530;2023-12-29T07:58:15;7.97;;;2.13;;
59788;SDS011;47353;51.614;5.530;2023-12-29T08:00:40;6.05;;;1.70;;
59788;SDS011;47353;51.614;5.530;2023-12-29T08:03:06;5.28;;;1.73;;
59788;SDS011;47353;51.614;5.530;2023-12-29T08:05:32;7.13;;;1.50;;
59788;SDS011;47353;51.614;5.530;2023-12-29T08:07:58;4.90;;;1.35;;
59788;SDS011;47353;51.614;5.530;2023-12-29T08:10:24;6.05;;;1.33;;
59788;SDS011;47353;51.614;5.530;2023-12-29T08:12:49;6.55;;;1.63;;
59788;SDS011;47353;51.614;5.530;2023-12-29T08:15:15;6.88;;;1.52;;
59788;SDS011;47353;51.614;5.530;2023-12-29T08:17:40;4.30;;;1.70;;
59788;SDS011;47353;51.614;5.530;2023-12-29T08:20:06;3.00;;;1.27;;
59788;SDS011;47353;51.614;5.530;2023-12-29T08:22:31;6.25;;;1.30;;
59788;SDS011;47353;51.614;5.530;2023-12-29T08:24:57;4.13;;;1.27;;
59788;SDS011;47353;51.614;5.530;2023-12-29T08:27:23;5.95;;;1.50;;
59788;SDS011;47353;51.614;5.530;2023-12-29T08:29:50;4.53;;;1.35;;
59788;SDS011;47353;51.614;5.530;2023-12-29T08:32:16;4.20;;;1.10;;
59788;SDS011;47353;51.614;5.530;2023-12-29T08:34:41;3.58;;;1.20;;
59788;SDS011;47353;51.614;5.530;2023-12-29T08:37:07;3.03;;;1.05;;
59788;SDS011;47353;51.614;5.530;2023-12-29T08:39:32;5.15;;;1.35;;
59788;SDS011;47353;51.614;5.530;2023-12-29T08:41:58;4.28;;;1.00;;
59788;SDS011;47353;51.614;5.530;2023-12-29T08:44:23;4.55;;;1.00;;
59788;SDS011;47353;51.614;5.530;2023-12-29T08:46:49;3.17;;;1.10;;
59788;SDS011;47353;51.614;5.530;2023-12-29T08:49:15;5.60;;;1.35;;
59788;SDS011;47353;51.614;5.530;2023-12-29T08:51:40;5.47;;;1.23;;
59788;SDS011;47353;51.614;5.530;2023-12-29T08:54:06;4.70;;;1.20;;
59788;SDS011;47353;51.614;5.530;2023-12-29T08:56:32;4.63;;;1.40;;
59788;SDS011;47353;51.614;5.530;2023-12-29T08:58:57;3.83;;;1.13;;
59788;SDS011;47353;51.614;5.530;2023-12-29T09:01:22;3.17;;;1.05;;
59788;SDS011;47353;51.614;5.530;2023-12-29T09:03:48;3.38;;;1.00;;
59788;SDS011;47353;51.614;5.530;2023-12-29T09:06:13;3.38;;;1.10;;
59788;SDS011;47353;51.614;5.530;2023-12-29T09:08:39;4.65;;;1.08;;
59788;SDS011;47353;51.614;5.530;2023-12-29T09:11:04;3.45;;;0.82;;
59788;SDS011;47353;51.614;5.530;2023-12-29T09:13:30;4.63;;;0.90;;
59788;SDS011;47353;51.614;5.530;2023-12-29T09:15:56;3.53;;;1.02;;
59788;SDS011;47353;51.614;5.530;2023-12-29T09:18:22;1.98;;;0.82;;
59788;SDS011;47353;51.614;5.530;2023-12-29T09:20:47;4.35;;;1.15;;
59788;SDS011;47353;51.614;5.530;2023-12-29T09:23:13;3.05;;;0.90;;
59788;SDS011;47353;51.614;5.530;2023-12-29T09:25:38;3.65;;;0.95;;
59788;SDS011;47353;51.614;5.530;2023-12-29T09:28:05;3.58;;;1.00;;
59788;SDS011;47353;51.614;5.530;2023-12-29T09:30:30;2.38;;;0.98;;
59788;SDS011;47353;51.614;5.530;2023-12-29T09:32:55;3.65;;;1.00;;
59788;SDS011;47353;51.614;5.530;2023-12-29T09:35:21;2.67;;;1.00;;
59788;SDS011;47353;51.614;5.530;2023-12-29T09:37:47;2.85;;;1.00;;
59788;SDS011;47353;51.614;5.530;2023-12-29T09:40:13;2.90;;;1.08;;
59788;SDS011;47353;51.614;5.530;2023-12-29T09:42:40;1.85;;;0.90;;
59788;SDS011;47353;51.614;5.530;2023-12-29T09:45:11;4.30;;;0.93;;
59788;SDS011;47353;51.614;5.530;2023-12-29T09:47:41;3.33;;;0.90;;
59788;SDS011;47353;51.614;5.530;2023-12-29T09:50:10;3.25;;;1.20;;
59788;SDS011;47353;51.614;5.530;2023-12-29T09:52:37;3.40;;;0.90;;
59788;SDS011;47353;51.614;5.530;2023-12-29T09:55:09;3.75;;;1.00;;
59788;SDS011;47353;51.614;5.530;2023-12-29T09:57:39;2.83;;;0.95;;
59788;SDS011;47353;51.614;5.530;2023-12-29T10:00:06;3.22;;;1.13;;
59788;SDS011;47353;51.614;5.530;2023-12-29T10:02:35;4.60;;;1.00;;
59788;SDS011;47353;51.614;5.530;2023-12-29T10:05:01;2.38;;;1.08;;
59788;SDS011;47353;51.614;5.530;2023-12-29T10:07:28;3.35;;;0.90;;
59788;SDS011;47353;51.614;5.530;2023-12-29T10:09:57;2.78;;;1.02;;
59788;SDS011;47353;51.614;5.530;2023-12-29T10:12:24;3.88;;;0.90;;
59788;SDS011;47353;51.614;5.530;2023-12-29T10:20:37;1.65;;;0.93;;
59788;SDS011;47353;51.614;5.530;2023-12-29T10:26:22;2.95;;;0.80;;
59788;SDS011;47353;51.614;5.530;2023-12-29T10:28:48;3.17;;;0.90;;
59788;SDS011;47353;51.614;5.530;2023-12-29T10:31:15;3.60;;;0.90;;
59788;SDS011;47353;51.614;5.530;2023-12-29T10:33:43;2.50;;;0.80;;
59788;SDS011;47353;51.614;5.530;2023-12-29T10:36:09;2.05;;;0.80;;
59788;SDS011;47353;51.614;5.530;2023-12-29T10:38:38;2.58;;;0.90;;
59788;SDS011;47353;51.614;5.530;2023-12-29T10:43:37;2.70;;;0.80;;
59788;SDS011;47353;51.614;5.530;2023-12-29T10:46:05;1.48;;;0.90;;
59788;SDS011;47353;51.614;5.530;2023-12-29T10:48:34;3.97;;;0.90;;
59788;SDS011;47353;51.614;5.530;2023-12-29T10:51:00;2.88;;;0.80;;
59788;SDS011;47353;51.614;5.530;2023-12-29T10:53:34;2.15;;;1.08;;
59788;SDS011;47353;51.614;5.530;2023-12-29T10:56:00;2.17;;;1.02;;
59788;SDS011;47353;51.614;5.530;2023-12-29T10:58:29;1.98;;;0.90;;
59788;SDS011;47353;51.614;5.530;2023-12-29T11:00:56;1.75;;;1.00;;
59788;SDS011;47353;51.614;5.530;2023-12-29T11:03:22;3.08;;;0.90;;
59788;SDS011;47353;51.614;5.530;2023-12-29T11:05:49;1.70;;;0.90;;
59788;SDS011;47353;51.614;5.530;2023-12-29T11:08:19;2.88;;;1.10;;
59788;SDS011;47353;51.614;5.530;2023-12-29T11:10:47;2.92;;;1.05;;
59788;SDS011;47353;51.614;5.530;2023-12-29T11:13:14;3.67;;;1.38;;
59788;SDS011;47353;51.614;5.530;2023-12-29T11:15:41;5.82;;;1.88;;
59788;SDS011;47353;51.614;5.530;2023-12-29T11:18:14;6.82;;;1.52;;
59788;SDS011;47353;51.614;5.530;2023-12-29T11:20:40;5.50;;;1.60;;
59788;SDS011;47353;51.614;5.530;2023-12-29T11:23:07;3.67;;;1.75;;
59788;SDS011;47353;51.614;5.530;2023-12-29T11:25:34;6.32;;;1.88;;
59788;SDS011;47353;51.614;5.530;2023-12-29T11:28:00;4.50;;;1.30;;
59788;SDS011;47353;51.614;5.530;2023-12-29T11:30:26;7.38;;;1.95;;
59788;SDS011;47353;51.614;5.530;2023-12-29T11:32:57;4.60;;;1.35;;
59788;SDS011;47353;51.614;5.530;2023-12-29T11:35:32;7.13;;;1.42;;
59788;SDS011;47353;51.614;5.530;2023-12-29T11:38:13;3.47;;;1.30;;
59788;SDS011;47353;51.614;5.530;2023-12-29T11:40:51;6.13;;;1.50;;
59788;SDS011;47353;51.614;5.530;2023-12-29T11:43:24;7.45;;;1.80;;
59788;SDS011;47353;51.614;5.530;2023-12-29T11:45:51;6.80;;;1.50;;
59788;SDS011;47353;51.614;5.530;2023-12-29T11:51:31;6.35;;;1.45;;
59788;SDS011;47353;51.614;5.530;2023-12-29T11:53:59;5.50;;;1.80;;
59788;SDS011;47353;51.614;5.530;2023-12-29T11:56:38;6.22;;;1.48;;
59788;SDS011;47353;51.614;5.530;2023-12-29T11:59:12;4.35;;;1.70;;
59788;SDS011;47353;51.614;5.530;2023-12-29T12:01:39;7.05;;;1.92;;
59788;SDS011;47353;51.614;5.530;2023-12-29T12:04:28;5.93;;;1.83;;
59788;SDS011;47353;51.614;5.530;2023-12-29T12:12:48;3.92;;;1.10;;
59788;SDS011;47353;51.614;5.530;2023-12-29T12:18:00;5.10;;;1.65;;
59788;SDS011;47353;51.614;5.530;2023-12-29T12:20:29;3.95;;;1.30;;
59788;SDS011;47353;51.614;5.530;2023-12-29T12:22:56;7.00;;;2.17;;
59788;SDS011;47353;51.614;5.530;2023-12-29T12:25:27;3.70;;;1.45;;
59788;SDS011;47353;51.614;5.530;2023-12-29T12:27:53;1.65;;;0.82;;
59788;SDS011;47353;51.614;5.530;2023-12-29T12:30:19;2.83;;;1.20;;
59788;SDS011;47353;51.614;5.530;2023-12-29T12:32:45;2.20;;;0.90;;
59788;SDS011;47353;51.614;5.530;2023-12-29T12:35:14;1.83;;;0.90;;
59788;SDS011;47353;51.614;5.530;2023-12-29T12:37:41;2.45;;;1.00;;
59788;SDS011;47353;51.614;5.530;2023-12-29T12:40:06;2.20;;;1.00;;
59788;SDS011;47353;51.614;5.530;2023-12-29T12:42:34;2.78;;;1.10;;
59788;SDS011;47353;51.614;5.530;2023-12-29T12:45:11;2.17;;;1.02;;
59788;SDS011;47353;51.614;5.530;2023-12-29T12:47:45;2.50;;;1.10;;
59788;SDS011;47353;51.614;5.530;2023-12-29T12:50:15;1.80;;;1.10;;
59788;SDS011;47353;51.614;5.530;2023-12-29T12:52:41;3.15;;;1.27;;
59788;SDS011;47353;51.614;5.530;2023-12-29T12:55:07;3.60;;;1.20;;
59788;SDS011;47353;51.614;5.530;2023-12-29T12:57:33;3.35;;;1.40;;
59788;SDS011;47353;51.614;5.530;2023-12-29T13:00:00;2.90;;;1.10;;
59788;SDS011;47353;51.614;5.530;2023-12-29T13:02:27;2.83;;;1.20;;
59788;SDS011;47353;51.614;5.530;2023-12-29T13:04:54;2.00;;;1.17;;
59788;SDS011;47353;51.614;5.530;2023-12-29T13:07:20;3.38;;;1.40;;
59788;SDS011;47353;51.614;5.530;2023-12-29T13:09:47;3.38;;;1.40;;
59788;SDS011;47353;51.614;5.530;2023-12-29T13:12:15;2.83;;;1.52;;
59788;SDS011;47353;51.614;5.530;2023-12-29T13:14:41;3.13;;;1.80;;
59788;SDS011;47353;51.614;5.530;2023-12-29T13:17:11;4.38;;;1.73;;
59788;SDS011;47353;51.614;5.530;2023-12-29T13:19:39;4.32;;;1.80;;
59788;SDS011;47353;51.614;5.530;2023-12-29T13:22:10;4.40;;;2.10;;
59788;SDS011;47353;51.614;5.530;2023-12-29T13:24:42;3.35;;;2.20;;
59788;SDS011;47353;51.614;5.530;2023-12-29T13:27:09;6.35;;;2.17;;
59788;SDS011;47353;51.614;5.530;2023-12-29T13:29:35;5.50;;;2.30;;
59788;SDS011;47353;51.614;5.530;2023-12-29T13:32:14;3.25;;;2.28;;
59788;SDS011;47353;51.614;5.530;2023-12-29T13:34:47;3.97;;;2.47;;
59788;SDS011;47353;51.614;5.530;2023-12-29T13:39:45;4.93;;;2.88;;
59788;SDS011;47353;51.614;5.530;2023-12-29T13:42:17;6.28;;;3.30;;
59788;SDS011;47353;51.614;5.530;2023-12-29T13:44:44;5.78;;;3.60;;
59788;SDS011;47353;51.614;5.530;2023-12-29T13:47:11;5.18;;;3.50;;
59788;SDS011;47353;51.614;5.530;2023-12-29T13:49:37;8.07;;;4.03;;
59788;SDS011;47353;51.614;5.530;2023-12-29T13:52:04;6.82;;;4.00;;
59788;SDS011;47353;51.614;5.530;2023-12-29T13:54:30;8.30;;;3.88;;
59788;SDS011;47353;51.614;5.530;2023-12-29T13:56:55;6.63;;;3.70;;
59788;SDS011;47353;51.614;5.530;2023-12-29T13:59:30;6.13;;;3.50;;
59788;SDS011;47353;51.614;5.530;2023-12-29T14:02:03;7.75;;;3.65;;
59788;SDS011;47353;51.614;5.530;2023-12-29T14:04:48;5.90;;;3.20;;
59788;SDS011;47353;51.614;5.530;2023-12-29T14:07:13;5.50;;;2.72;;
59788;SDS011;47353;51.614;5.530;2023-12-29T14:09:40;4.50;;;2.80;;
59788;SDS011;47353;51.614;5.530;2023-12-29T14:12:05;6.70;;;2.65;;
59788;SDS011;47353;51.614;5.530;2023-12-29T14:14:31;6.00;;;2.40;;
59788;SDS011;47353;51.614;5.530;2023-12-29T14:16:57;5.53;;;2.35;;
59788;SDS011;47353;51.614;5.530;2023-12-29T14:19:22;6.00;;;2.30;;
59788;SDS011;47353;51.614;5.530;2023-12-29T14:21:54;5.30;;;2.20;;
59788;SDS011;47353;51.614;5.530;2023-12-29T14:24:20;3.90;;;2.00;;
59788;SDS011;47353;51.614;5.530;2023-12-29T14:29:17;6.80;;;2.10;;
59788;SDS011;47353;51.614;5.530;2023-12-29T14:31:43;3.35;;;1.60;;
59788;SDS011;47353;51.614;5.530;2023-12-29T14:34:10;5.07;;;1.65;;
59788;SDS011;47353;51.614;5.530;2023-12-29T14:36:36;3.38;;;1.50;;
59788;SDS011;47353;51.614;5.530;2023-12-29T14:39:02;3.72;;;1.42;;
59788;SDS011;47353;51.614;5.530;2023-12-29T14:41:29;2.80;;;1.40;;
59788;SDS011;47353;51.614;5.530;2023-12-29T14:43:55;2.55;;;1.30;;
59788;SDS011;47353;51.614;5.530;2023-12-29T14:46:21;4.22;;;1.30;;
59788;SDS011;47353;51.614;5.530;2023-12-29T14:48:47;3.22;;;1.30;;
59788;SDS011;47353;51.614;5.530;2023-12-29T14:51:13;3.30;;;1.42;;
59788;SDS011;47353;51.614;5.530;2023-12-29T14:53:40;6.32;;;1.63;;
59788;SDS011;47353;51.614;5.530;2023-12-29T14:56:08;4.47;;;1.50;;
59788;SDS011;47353;51.614;5.530;2023-12-29T14:58:33;3.58;;;1.70;;
59788;SDS011;47353;51.614;5.530;2023-12-29T15:01:01;4.38;;;1.50;;
59788;SDS011;47353;51.614;5.530;2023-12-29T15:03:26;5.60;;;1.88;;
59788;SDS011;47353;51.614;5.530;2023-12-29T15:05:52;2.60;;;1.40;;
59788;SDS011;47353;51.614;5.530;2023-12-29T15:08:17;3.60;;;1.08;;
59788;SDS011;47353;51.614;5.530;2023-12-29T15:10:43;2.72;;;1.10;;
59788;SDS011;47353;51.614;5.530;2023-12-29T15:13:11;3.25;;;1.17;;